createdAt,value
2018-10-19T00:00:14.580Z,17.42
2018-10-19T00:05:19.607Z,18.60
2018-10-19T00:10:24.278Z,16.60
2018-10-19T00:15:28.400Z,17.67
2018-10-19T00:20:32.508Z,18.33
2018-10-19T00:25:36.853Z,20.37
2018-10-19T00:30:41.653Z,19.43
2018-10-19T00:35:46.559Z,20.90
2018-10-19T00:40:50.747Z,19.70
2018-10-19T00:45:54.866Z,25.90
2018-10-19T00:50:59.007Z,21.90
2018-10-19T00:56:03.844Z,23.80
2018-10-19T01:01:08.616Z,24.37
2018-10-19T01:06:13.011Z,21.03
2018-10-19T01:11:17.508Z,19.27
2018-10-19T01:16:21.993Z,20.87
2018-10-19T01:21:26.538Z,19.00
2018-10-19T01:26:30.772Z,19.37
2018-10-19T01:31:35.836Z,17.87
2018-10-19T01:36:42.920Z,19.90
2018-10-19T01:41:47.229Z,18.63
2018-10-19T01:46:51.563Z,20.43
2018-10-19T01:51:55.998Z,17.70
2018-10-19T01:57:00.463Z,18.60
2018-10-19T02:02:05.418Z,18.27
2018-10-19T02:07:09.837Z,19.77
2018-10-19T02:12:14.042Z,23.73
2018-10-19T02:17:18.290Z,24.63
2018-10-19T02:22:22.955Z,27.87
2018-10-19T02:27:27.428Z,29.17
2018-10-19T02:32:31.743Z,30.13
2018-10-19T02:37:36.159Z,30.17
2018-10-19T02:42:40.685Z,29.63
2018-10-19T02:47:45.536Z,25.67
2018-10-19T02:52:50.048Z,25.73
2018-10-19T02:57:54.951Z,25.30
2018-10-19T03:03:00.344Z,24.33
2018-10-19T03:08:04.560Z,25.93
2018-10-19T03:13:08.828Z,24.83
2018-10-19T03:18:13.036Z,24.93
2018-10-19T03:23:18.012Z,21.23
2018-10-19T03:28:22.389Z,23.23
2018-10-19T03:33:26.640Z,29.07
2018-10-19T03:38:30.795Z,26.03
2018-10-19T03:43:36.067Z,26.15
2018-10-19T03:48:41.663Z,21.53
2018-10-19T03:53:45.867Z,22.53
2018-10-19T03:58:50.221Z,25.10
2018-10-19T04:03:54.324Z,31.33
2018-10-19T04:08:59.096Z,35.43
2018-10-19T04:14:03.824Z,35.37
2018-10-19T04:19:08.914Z,33.73
2018-10-19T04:24:13.032Z,36.13
2018-10-19T04:29:17.856Z,30.77
2018-10-19T04:34:22.433Z,29.57
2018-10-19T04:39:26.769Z,29.00
2018-10-19T04:44:31.030Z,27.93
2018-10-19T04:49:35.111Z,29.37
2018-10-19T04:54:39.748Z,28.25
2018-10-19T04:59:44.435Z,25.13
2018-10-19T05:04:49.063Z,22.05
2018-10-19T05:09:53.104Z,26.87
2018-10-19T05:14:57.241Z,33.13
2018-10-19T05:20:01.434Z,27.30
2018-10-19T05:25:07.796Z,25.67
2018-10-19T05:30:13.070Z,38.63
2018-10-19T05:35:17.531Z,30.90
2018-10-19T05:40:21.671Z,29.67
2018-10-19T05:45:26.798Z,34.13
2018-10-19T05:50:30.873Z,33.40
2018-10-19T05:55:35.205Z,27.73
2018-10-19T06:00:39.726Z,27.37
2018-10-19T06:05:44.589Z,29.72
2018-10-19T06:10:49.183Z,35.57
2018-10-19T06:15:53.278Z,33.20
2018-10-19T06:20:57.428Z,30.90
2018-10-19T06:26:02.120Z,33.73
2018-10-19T06:31:06.644Z,29.07
2018-10-19T06:36:10.935Z,36.42
2018-10-19T06:41:15.338Z,31.45
2018-10-19T06:46:19.417Z,25.93
2018-10-19T06:51:23.508Z,27.77
2018-10-19T06:56:28.324Z,28.77
2018-10-19T07:01:32.832Z,29.50
2018-10-19T07:06:37.207Z,25.20
2018-10-19T07:11:41.465Z,23.67
2018-10-19T07:16:45.531Z,22.10
2018-10-19T07:21:49.705Z,26.77
2018-10-19T07:26:53.916Z,24.13
2018-10-19T07:31:58.225Z,19.57
2018-10-19T07:37:02.430Z,26.47
2018-10-19T07:42:06.656Z,24.43
2018-10-19T07:47:11.277Z,24.33
2018-10-19T07:52:15.742Z,23.40
2018-10-19T07:57:20.192Z,26.20
2018-10-19T08:02:24.531Z,28.73
2018-10-19T08:07:28.747Z,27.37
2018-10-19T08:12:32.843Z,28.53
2018-10-19T08:17:37.250Z,26.30
2018-10-19T08:22:42.217Z,28.67
2018-10-19T08:27:46.733Z,38.40
2018-10-19T08:32:51.106Z,27.43
2018-10-19T08:37:56.243Z,22.70
2018-10-19T08:43:00.916Z,31.33
2018-10-19T08:48:05.274Z,33.28
2018-10-19T08:53:09.930Z,38.77
2018-10-19T08:58:14.060Z,30.33
2018-10-19T09:03:18.110Z,37.90
2018-10-19T09:08:22.226Z,35.03
2018-10-19T09:13:26.661Z,35.57
2018-10-19T09:18:31.011Z,33.17
2018-10-19T09:23:35.464Z,33.70
2018-10-19T09:28:39.758Z,33.83
2018-10-19T09:33:44.452Z,31.57
2018-10-19T09:38:48.838Z,31.70
2018-10-19T09:43:53.233Z,32.70
2018-10-19T09:48:57.826Z,34.10
2018-10-19T09:54:02.341Z,34.80
2018-10-19T09:59:06.696Z,35.03
2018-10-19T10:04:11.306Z,33.80
2018-10-19T10:09:17.013Z,34.00
2018-10-19T10:14:21.120Z,35.33
2018-10-19T10:19:25.491Z,34.03
2018-10-19T10:24:30.163Z,35.67
2018-10-19T10:29:34.708Z,36.73
2018-10-19T10:34:38.906Z,36.85
2018-10-19T10:39:43.030Z,36.53
2018-10-19T10:44:47.328Z,38.17
2018-10-19T10:49:51.770Z,38.77
2018-10-19T10:54:56.033Z,37.53
2018-10-19T11:00:00.820Z,38.13
2018-10-19T11:05:05.506Z,38.77
2018-10-19T11:10:10.245Z,39.50
2018-10-19T11:15:14.690Z,38.30
2018-10-19T11:20:19.359Z,37.07
2018-10-19T11:25:23.545Z,35.87
2018-10-19T11:30:27.707Z,37.60
2018-10-19T11:35:32.309Z,34.57
2018-10-19T11:40:37.526Z,34.67
2018-10-19T11:45:41.633Z,35.38
2018-10-19T11:50:45.842Z,38.23
2018-10-19T11:55:50.384Z,36.05
2018-10-19T12:00:55.121Z,38.23
2018-10-19T12:05:59.482Z,38.47
2018-10-19T12:11:03.646Z,37.70
2018-10-19T12:16:08.257Z,35.85
2018-10-19T12:21:12.740Z,39.13
2018-10-19T12:26:16.946Z,33.10
2018-10-19T12:31:21.346Z,35.68
2018-10-19T12:36:26.494Z,35.50
2018-10-19T12:41:30.624Z,37.77
2018-10-19T12:46:47.814Z,35.00
2018-10-19T12:51:53.091Z,34.23
2018-10-19T12:56:57.217Z,37.37
2018-10-19T13:02:02.871Z,39.07
2018-10-19T13:07:08.981Z,39.17
2018-10-19T13:12:13.273Z,38.73
2018-10-19T13:17:18.793Z,39.77
2018-10-19T13:22:23.658Z,40.73
2018-10-19T13:27:27.791Z,39.67
2018-10-19T13:32:32.557Z,37.70
2018-10-19T13:37:37.521Z,37.83
2018-10-19T13:42:41.970Z,39.27
2018-10-19T13:47:46.416Z,40.12
2018-10-19T13:52:50.717Z,37.60
2018-10-19T13:57:55.909Z,40.67
2018-10-19T14:03:00.412Z,38.43
2018-10-19T14:08:04.884Z,35.70
2018-10-19T14:13:13.332Z,40.10
2018-10-19T14:18:17.417Z,39.53
2018-10-19T14:23:21.675Z,41.20
2018-10-19T14:28:26.491Z,40.40
2018-10-19T14:33:31.138Z,41.33
2018-10-19T14:38:35.816Z,43.10
2018-10-19T14:43:40.376Z,41.30
2018-10-19T14:48:44.583Z,37.47
2018-10-19T14:53:49.030Z,43.47
2018-10-19T14:58:54.255Z,42.15
2018-10-19T15:03:58.531Z,39.30
2018-10-19T15:09:03.651Z,42.54
2018-10-19T15:14:07.906Z,39.60
2018-10-19T15:19:13.260Z,38.80
2018-10-19T15:24:18.385Z,41.50
2018-10-19T15:29:23.021Z,36.77
2018-10-19T15:34:27.945Z,50.40
2018-10-19T15:39:36.926Z,44.00
2018-10-19T15:44:42.799Z,38.53
2018-10-19T15:49:47.551Z,45.37
2018-10-19T15:54:53.175Z,41.70
2018-10-19T15:59:58.853Z,43.33
2018-10-19T16:05:04.853Z,43.50
2018-10-19T16:10:10.018Z,41.00
2018-10-19T16:15:14.312Z,39.93
2018-10-19T16:20:21.028Z,37.63
2018-10-19T16:25:25.275Z,36.57
2018-10-19T16:30:29.529Z,35.80
2018-10-19T16:35:41.226Z,35.63
2018-10-19T16:40:47.122Z,38.90
2018-10-19T16:45:51.530Z,43.87
2018-10-19T16:50:56.365Z,51.63
2018-10-19T16:56:02.889Z,40.93
2018-10-19T17:01:07.084Z,39.87
2018-10-19T17:06:12.350Z,38.17
2018-10-19T17:11:16.832Z,37.15
2018-10-19T17:16:21.073Z,34.57
2018-10-19T17:21:25.154Z,31.07
2018-10-19T17:26:30.570Z,32.60
2018-10-19T17:31:34.816Z,31.57
2018-10-19T17:36:39.269Z,32.03
2018-10-19T17:41:43.709Z,30.57
2018-10-19T17:46:47.990Z,30.90
2018-10-19T17:51:52.097Z,29.73
2018-10-19T17:56:58.737Z,33.20
2018-10-19T18:02:02.995Z,33.63
2018-10-19T18:07:07.809Z,31.10
2018-10-19T18:12:12.124Z,31.15
2018-10-19T18:17:17.332Z,31.97
2018-10-19T18:22:24.109Z,31.20
2018-10-19T18:27:28.692Z,29.63
2018-10-19T18:32:33.267Z,34.13
2018-10-19T18:37:38.541Z,32.20
2018-10-19T18:42:43.012Z,30.63
2018-10-19T18:47:48.716Z,32.90
2018-10-19T18:52:52.938Z,33.17
2018-10-19T18:57:57.014Z,38.07
2018-10-19T19:03:01.499Z,38.53
2018-10-19T19:08:07.324Z,38.87
2018-10-19T19:13:16.984Z,39.95
2018-10-19T19:18:24.056Z,38.57
2018-10-19T19:23:28.551Z,36.90
2018-10-19T19:28:32.764Z,40.47
2018-10-19T19:33:42.311Z,42.77
2018-10-19T19:38:46.480Z,38.73
2018-10-19T19:43:51.107Z,40.60
2018-10-19T19:49:02.075Z,42.73
2018-10-19T19:54:06.531Z,45.60
2018-10-19T19:59:10.778Z,43.50
2018-10-19T20:04:16.051Z,41.00
2018-10-19T20:09:20.652Z,41.67
2018-10-19T20:14:25.186Z,43.77
2018-10-19T20:19:29.516Z,42.27
2018-10-19T20:24:33.783Z,44.17
2018-10-19T20:29:38.159Z,46.23
2018-10-19T20:34:42.580Z,46.97
2018-10-19T20:39:47.076Z,45.20
2018-10-19T20:44:51.289Z,42.87
2018-10-19T20:49:55.356Z,46.43
2018-10-19T20:54:59.601Z,43.10
2018-10-19T21:00:05.293Z,42.03
2018-10-19T21:05:11.231Z,41.42
2018-10-19T21:10:15.502Z,44.33
2018-10-19T21:15:20.028Z,40.03
2018-10-19T21:20:24.566Z,40.27
2018-10-19T21:25:29.327Z,40.73
2018-10-19T21:30:33.405Z,42.63
2018-10-19T21:35:37.629Z,39.53
2018-10-19T21:40:42.086Z,39.47
2018-10-19T21:45:46.247Z,40.13
2018-10-19T21:50:50.537Z,36.57
2018-10-19T21:55:54.624Z,37.17
2018-10-19T22:00:58.867Z,41.73
2018-10-19T22:06:03.988Z,36.13
2018-10-19T22:11:08.608Z,35.37
2018-10-19T22:16:12.922Z,39.23
2018-10-19T22:21:17.116Z,43.67
2018-10-19T22:26:21.229Z,43.98
2018-10-19T22:31:26.707Z,42.95
2018-10-19T22:36:31.561Z,40.97
2018-10-19T22:41:35.658Z,40.83
2018-10-19T22:46:40.383Z,43.23
2018-10-19T22:51:44.894Z,43.10
2018-10-19T22:56:49.161Z,43.63
2018-10-19T23:01:53.796Z,36.80
2018-10-19T23:06:57.915Z,41.50
2018-10-19T23:12:02.084Z,43.97
2018-10-19T23:17:06.279Z,40.03
2018-10-19T23:22:11.208Z,37.43
2018-10-19T23:27:15.534Z,39.03
2018-10-19T23:32:20.187Z,40.53
2018-10-19T23:37:24.445Z,38.93
2018-10-19T23:42:28.589Z,36.90
2018-10-19T23:47:33.559Z,41.83
2018-10-19T23:52:38.401Z,38.20
2018-10-19T23:57:42.540Z,45.63
